createdAt,value
2022-08-26T00:02:11.569Z,71.94
2022-08-26T00:04:39.826Z,72.54
2022-08-26T00:07:09.126Z,72.47
2022-08-26T00:09:38.881Z,72.57
2022-08-26T00:12:07.729Z,72.58
2022-08-26T00:14:37.455Z,72.39
2022-08-26T00:17:05.800Z,72.92
2022-08-26T00:19:36.581Z,73.06
2022-08-26T00:22:04.494Z,73.04
2022-08-26T00:24:33.706Z,73.06
2022-08-26T00:27:01.536Z,72.94
2022-08-26T00:29:31.969Z,72.99
2022-08-26T00:32:04.106Z,73.16
2022-08-26T00:34:32.055Z,73.35
2022-08-26T00:36:59.867Z,73.07
2022-08-26T00:39:27.897Z,73.28
2022-08-26T00:41:57.221Z,72.81
2022-08-26T00:44:25.285Z,73.00
2022-08-26T00:46:58.281Z,72.62
2022-08-26T00:49:41.511Z,72.47
2022-08-26T00:52:13.238Z,72.10
2022-08-26T00:54:47.647Z,72.16
2022-08-26T00:57:19.466Z,72.19
2022-08-26T00:59:50.024Z,73.19
2022-08-26T01:02:21.210Z,73.12
2022-08-26T01:04:54.405Z,73.17
2022-08-26T01:07:26.066Z,73.28
2022-08-26T01:09:54.294Z,73.44
2022-08-26T01:12:25.758Z,73.62
2022-08-26T01:14:53.838Z,73.56
2022-08-26T01:17:21.825Z,73.48
2022-08-26T01:19:53.420Z,73.42
2022-08-26T01:22:28.187Z,73.42
2022-08-26T01:24:59.710Z,73.93
2022-08-26T01:27:32.668Z,74.08
2022-08-26T01:30:02.203Z,74.52
2022-08-26T01:32:32.905Z,74.55
2022-08-26T01:35:01.481Z,74.06
2022-08-26T01:37:36.543Z,74.29
2022-08-26T01:40:10.646Z,74.35
2022-08-26T01:42:38.637Z,74.31
2022-08-26T01:45:11.228Z,73.92
2022-08-26T01:47:39.885Z,74.54
2022-08-26T01:50:15.693Z,74.18
2022-08-26T01:52:57.052Z,73.93
2022-08-26T01:55:27.706Z,74.00
2022-08-26T01:58:04.611Z,74.18
2022-08-26T02:00:34.985Z,74.92
2022-08-26T02:03:18.730Z,74.50
2022-08-26T02:05:48.741Z,74.27
2022-08-26T02:08:24.735Z,73.93
2022-08-26T02:10:55.517Z,74.54
2022-08-26T02:13:26.615Z,74.45
2022-08-26T02:15:55.152Z,74.50
2022-08-26T02:18:24.156Z,74.60
2022-08-26T02:20:54.925Z,74.27
2022-08-26T02:23:24.053Z,74.22
2022-08-26T02:26:00.476Z,74.14
2022-08-26T02:28:32.063Z,74.21
2022-08-26T02:31:00.181Z,74.52
2022-08-26T02:33:30.598Z,74.16
2022-08-26T02:35:59.009Z,74.43
2022-08-26T02:38:26.863Z,74.50
2022-08-26T02:40:56.320Z,74.52
2022-08-26T02:43:31.554Z,74.54
2022-08-26T02:46:02.438Z,74.72
2022-08-26T02:48:31.614Z,74.68
2022-08-26T02:51:00.150Z,74.82
2022-08-26T02:53:28.168Z,74.60
2022-08-26T02:56:01.119Z,75.24
2022-08-26T02:58:29.270Z,74.96
2022-08-26T03:00:57.162Z,75.10
2022-08-26T03:03:25.210Z,74.84
2022-08-26T03:05:53.193Z,74.87
2022-08-26T03:08:22.239Z,74.48
2022-08-26T03:10:50.789Z,75.05
2022-08-26T03:13:19.985Z,75.19
2022-08-26T03:15:47.936Z,75.07
2022-08-26T03:18:16.169Z,74.80
2022-08-26T03:20:44.100Z,74.73
2022-08-26T03:23:12.600Z,74.80
2022-08-26T03:25:43.012Z,74.64
2022-08-26T03:28:11.185Z,74.68
2022-08-26T03:30:44.202Z,74.61
2022-08-26T03:33:14.576Z,74.70
2022-08-26T03:35:43.436Z,74.60
2022-08-26T03:38:12.041Z,74.82
2022-08-26T03:40:40.063Z,75.23
2022-08-26T03:43:10.189Z,75.15
2022-08-26T03:45:40.881Z,75.01
2022-08-26T03:48:09.259Z,75.04
2022-08-26T03:50:37.208Z,74.91
2022-08-26T03:53:07.416Z,74.90
2022-08-26T03:55:41.036Z,75.40
2022-08-26T03:58:09.082Z,75.21
2022-08-26T04:00:37.185Z,75.07
2022-08-26T04:03:06.588Z,74.73
2022-08-26T04:05:38.534Z,74.76
2022-08-26T04:08:06.664Z,74.63
2022-08-26T04:10:34.581Z,74.58
2022-08-26T04:13:02.484Z,74.65
2022-08-26T04:15:30.378Z,74.44
2022-08-26T04:17:58.255Z,74.61
2022-08-26T04:20:28.920Z,74.53
2022-08-26T04:22:57.950Z,74.58
2022-08-26T04:25:25.615Z,75.29
2022-08-26T04:27:53.458Z,74.34
2022-08-26T04:30:21.893Z,74.52
2022-08-26T04:32:49.790Z,74.77
2022-08-26T04:35:17.767Z,74.85
2022-08-26T04:37:47.836Z,74.88
2022-08-26T04:40:15.761Z,75.11
2022-08-26T04:42:44.323Z,75.49
2022-08-26T04:45:13.442Z,75.11
2022-08-26T04:47:42.098Z,75.14
2022-08-26T04:50:11.045Z,75.95
2022-08-26T04:52:38.805Z,75.25
2022-08-26T04:55:08.818Z,75.08
2022-08-26T04:57:36.811Z,74.88
2022-08-26T05:00:06.129Z,75.11
2022-08-26T05:02:34.329Z,75.36
2022-08-26T05:05:02.407Z,75.50
2022-08-26T05:07:31.184Z,75.75
2022-08-26T05:10:00.229Z,75.74
2022-08-26T05:12:29.586Z,75.70
2022-08-26T05:14:57.643Z,75.25
2022-08-26T05:17:27.134Z,75.44
2022-08-26T05:19:55.467Z,74.70
2022-08-26T05:22:23.338Z,75.11
2022-08-26T05:24:51.147Z,74.67
2022-08-26T05:27:19.437Z,74.65
2022-08-26T05:29:54.521Z,74.59
2022-08-26T05:32:22.614Z,74.47
2022-08-26T05:34:55.357Z,74.19
2022-08-26T05:37:23.213Z,74.09
2022-08-26T05:39:51.540Z,73.75
2022-08-26T05:42:19.894Z,74.08
2022-08-26T05:44:53.906Z,74.25
2022-08-26T05:47:24.103Z,74.60
2022-08-26T05:49:52.259Z,75.41
2022-08-26T05:52:20.915Z,74.43
2022-08-26T05:54:52.629Z,74.95
2022-08-26T05:57:20.463Z,74.97
2022-08-26T05:59:52.718Z,75.14
2022-08-26T06:02:20.625Z,74.23
2022-08-26T06:04:48.575Z,74.57
2022-08-26T06:07:17.045Z,74.52
2022-08-26T06:09:46.383Z,75.00
2022-08-26T06:12:15.812Z,74.90
2022-08-26T06:14:46.540Z,74.85
2022-08-26T06:17:18.254Z,74.81
2022-08-26T06:19:46.099Z,74.83
2022-08-26T06:22:27.850Z,74.84
2022-08-26T06:25:13.225Z,75.17
2022-08-26T06:27:41.123Z,75.36
2022-08-26T06:30:10.393Z,75.55
2022-08-26T06:32:39.658Z,75.02
2022-08-26T06:35:12.277Z,74.99
2022-08-26T06:37:40.411Z,75.07
2022-08-26T06:40:10.103Z,75.00
2022-08-26T06:42:39.620Z,75.30
2022-08-26T06:45:08.515Z,75.38
2022-08-26T06:47:36.938Z,75.41
2022-08-26T06:50:07.013Z,75.56
2022-08-26T06:52:35.239Z,75.58
2022-08-26T06:55:03.511Z,75.48
2022-08-26T06:57:32.951Z,75.66
2022-08-26T07:00:03.241Z,75.10
2022-08-26T07:02:32.036Z,75.65
2022-08-26T07:05:00.016Z,75.19
2022-08-26T07:07:29.519Z,75.21
2022-08-26T07:09:57.703Z,75.40
2022-08-26T07:12:25.801Z,74.87
2022-08-26T07:14:54.018Z,74.52
2022-08-26T07:17:21.830Z,74.68
2022-08-26T07:19:53.638Z,74.40
2022-08-26T07:22:21.488Z,74.43
2022-08-26T07:24:51.007Z,74.34
2022-08-26T07:27:18.933Z,74.42
2022-08-26T07:29:46.935Z,74.17
2022-08-26T07:32:16.194Z,74.18
2022-08-26T07:34:44.510Z,73.90
2022-08-26T07:37:12.461Z,73.92
2022-08-26T07:39:41.783Z,74.16
2022-08-26T07:42:14.358Z,74.48
2022-08-26T07:44:43.178Z,73.99
2022-08-26T07:47:25.417Z,74.47
2022-08-26T07:49:55.516Z,74.50
2022-08-26T07:52:27.452Z,73.82
2022-08-26T07:54:56.993Z,73.89
2022-08-26T07:57:26.534Z,73.38
2022-08-26T07:59:55.228Z,73.10
2022-08-26T08:02:23.722Z,72.88
2022-08-26T08:04:52.335Z,72.93
2022-08-26T08:07:20.473Z,72.79
2022-08-26T08:09:49.611Z,72.78
2022-08-26T08:12:18.015Z,71.86
2022-08-26T08:14:48.738Z,71.93
2022-08-26T08:17:17.103Z,71.54
2022-08-26T08:19:45.039Z,71.28
2022-08-26T08:22:17.763Z,71.47
2022-08-26T08:24:49.777Z,71.94
2022-08-26T08:27:23.894Z,71.69
2022-08-26T08:29:55.131Z,72.14
2022-08-26T08:32:23.844Z,72.13
2022-08-26T08:34:51.865Z,72.36
2022-08-26T08:37:20.167Z,72.00
2022-08-26T08:39:48.995Z,72.20
2022-08-26T08:42:36.645Z,72.14
2022-08-26T08:45:11.491Z,72.17
2022-08-26T08:47:43.907Z,72.05
2022-08-26T08:50:22.769Z,71.84
2022-08-26T08:52:55.654Z,71.23
2022-08-26T08:55:29.012Z,71.12
2022-08-26T08:58:04.668Z,71.15
2022-08-26T09:00:44.168Z,71.34
2022-08-26T09:03:25.116Z,71.54
2022-08-26T09:05:55.431Z,71.67
2022-08-26T09:08:28.278Z,71.93
2022-08-26T09:10:59.213Z,71.97
2022-08-26T09:13:27.668Z,72.14
2022-08-26T09:16:06.711Z,71.95
2022-08-26T09:18:49.850Z,71.65
2022-08-26T09:21:20.611Z,71.44
2022-08-26T09:23:52.112Z,71.97
2022-08-26T09:26:25.945Z,72.17
2022-08-26T09:28:58.868Z,72.63
2022-08-26T09:31:29.566Z,72.70
2022-08-26T09:34:08.698Z,72.60
2022-08-26T09:36:41.476Z,72.75
2022-08-26T09:39:27.390Z,72.49
2022-08-26T09:42:14.454Z,72.52
2022-08-26T09:44:57.009Z,72.61
2022-08-26T09:47:29.752Z,72.45
2022-08-26T09:50:00.815Z,72.34
2022-08-26T09:52:30.054Z,72.43
2022-08-26T09:55:11.377Z,72.68
2022-08-26T09:57:46.999Z,72.64
2022-08-26T10:00:27.600Z,72.43
2022-08-26T10:02:58.263Z,72.31
2022-08-26T10:05:39.759Z,72.14
2022-08-26T10:08:25.042Z,72.09
2022-08-26T10:10:53.710Z,71.71
2022-08-26T10:13:26.650Z,71.51
2022-08-26T10:16:02.451Z,71.30
2022-08-26T10:18:34.775Z,71.03
2022-08-26T10:21:07.410Z,71.10
2022-08-26T10:26:19.280Z,70.24
2022-08-26T10:28:52.820Z,70.34
2022-08-26T10:31:28.614Z,70.55
2022-08-26T10:34:00.511Z,70.64
2022-08-26T10:37:14.568Z,70.45
2022-08-26T10:39:42.969Z,70.08
2022-08-26T10:42:17.824Z,69.97
2022-08-26T10:44:50.664Z,69.84
2022-08-26T10:47:21.694Z,70.10
2022-08-26T10:49:57.502Z,70.36
2022-08-26T10:52:39.291Z,70.67
2022-08-26T10:55:16.069Z,70.53
2022-08-26T10:57:50.663Z,70.66
2022-08-26T11:00:40.793Z,70.38
2022-08-26T11:03:24.590Z,70.33
2022-08-26T11:06:21.156Z,70.19
2022-08-26T11:08:49.906Z,70.21
2022-08-26T11:11:45.277Z,70.17
2022-08-26T11:14:42.048Z,70.59
2022-08-26T11:17:58.194Z,70.84
2022-08-26T11:20:41.519Z,71.19
2022-08-26T11:23:50.708Z,71.10
2022-08-26T11:26:32.804Z,70.89
2022-08-26T11:29:13.551Z,71.04
2022-08-26T11:31:56.997Z,70.95
2022-08-26T11:34:53.958Z,70.61
2022-08-26T11:37:25.802Z,70.51
2022-08-26T11:39:57.181Z,70.33
2022-08-26T11:42:33.217Z,70.45
2022-08-26T11:45:05.673Z,70.60
2022-08-26T11:47:33.896Z,70.77
2022-08-26T11:50:10.863Z,70.53
2022-08-26T11:52:38.726Z,70.73
2022-08-26T11:55:11.096Z,70.62
2022-08-26T11:57:44.850Z,70.58
2022-08-26T12:00:22.643Z,70.48
2022-08-26T12:02:52.665Z,70.32
2022-08-26T12:05:27.212Z,70.29
2022-08-26T12:08:02.315Z,69.92
2022-08-26T12:10:34.248Z,70.02
2022-08-26T12:13:04.715Z,70.12
2022-08-26T12:15:34.911Z,70.34
2022-08-26T12:18:28.574Z,70.25
2022-08-26T12:21:00.430Z,70.13
2022-08-26T12:23:40.269Z,69.80
2022-08-26T12:26:14.161Z,69.60
2022-08-26T12:28:47.039Z,69.36
2022-08-26T12:31:25.502Z,69.47
2022-08-26T12:33:54.623Z,69.33
2022-08-26T12:36:28.716Z,69.55
2022-08-26T12:38:58.523Z,69.67
2022-08-26T12:41:50.531Z,69.90
2022-08-26T12:44:53.381Z,70.06
2022-08-26T12:47:33.909Z,69.53
2022-08-26T12:50:12.456Z,69.47
2022-08-26T12:52:52.203Z,68.85
2022-08-26T12:55:22.678Z,68.91
2022-08-26T12:58:14.743Z,69.92
2022-08-26T13:00:44.888Z,70.76
2022-08-26T13:03:38.063Z,71.76
2022-08-26T13:06:29.722Z,72.90
2022-08-26T13:08:59.470Z,73.12
2022-08-26T13:11:31.571Z,73.38
2022-08-26T13:14:03.083Z,73.63
2022-08-26T13:16:36.227Z,73.39
2022-08-26T13:19:05.635Z,73.10
2022-08-26T13:21:43.538Z,73.08
2022-08-26T13:24:13.989Z,73.35
2022-08-26T13:26:42.805Z,73.07
2022-08-26T13:29:12.988Z,73.31
2022-08-26T13:31:43.944Z,73.96
2022-08-26T13:34:15.307Z,73.94
2022-08-26T13:36:44.952Z,73.68
2022-08-26T13:39:13.379Z,73.78
2022-08-26T13:41:42.233Z,73.52
2022-08-26T13:44:12.151Z,73.69
2022-08-26T13:46:40.191Z,73.70
2022-08-26T13:49:08.548Z,73.56
2022-08-26T13:51:36.472Z,74.13
2022-08-26T13:54:05.538Z,73.18
2022-08-26T13:56:34.162Z,73.48
2022-08-26T13:59:02.917Z,73.71
2022-08-26T14:01:33.468Z,74.38
2022-08-26T14:04:02.647Z,75.24
2022-08-26T14:06:30.924Z,75.47
2022-08-26T14:09:00.285Z,75.58
2022-08-26T14:11:28.930Z,75.72
2022-08-26T14:14:05.175Z,75.92
2022-08-26T14:16:37.575Z,75.59
2022-08-26T14:19:25.421Z,75.45
2022-08-26T14:21:53.498Z,75.51
2022-08-26T14:24:21.891Z,75.86
2022-08-26T14:26:49.878Z,76.29
2022-08-26T14:29:17.807Z,76.40
2022-08-26T14:31:47.010Z,76.51
2022-08-26T14:34:15.212Z,76.43
2022-08-26T14:36:43.477Z,76.61
2022-08-26T14:39:14.603Z,77.05
2022-08-26T14:41:54.426Z,76.68
2022-08-26T14:44:25.374Z,77.52
2022-08-26T14:46:55.039Z,76.91
2022-08-26T14:49:24.364Z,76.84
2022-08-26T14:51:52.273Z,76.54
2022-08-26T14:54:20.435Z,76.45
2022-08-26T14:56:50.168Z,77.15
2022-08-26T14:59:21.122Z,77.71
2022-08-26T15:01:50.363Z,77.88
2022-08-26T15:04:19.943Z,77.24
2022-08-26T15:06:48.474Z,77.89
2022-08-26T15:09:16.891Z,77.46
2022-08-26T15:11:44.823Z,77.58
2022-08-26T15:14:19.441Z,77.41
2022-08-26T15:16:48.456Z,77.56
2022-08-26T15:19:16.769Z,77.51
2022-08-26T15:21:47.238Z,77.68
2022-08-26T15:24:17.780Z,77.84
2022-08-26T15:26:48.296Z,78.10
2022-08-26T15:29:16.553Z,78.20
2022-08-26T15:31:44.487Z,78.20
2022-08-26T15:34:16.759Z,77.42
2022-08-26T15:36:47.857Z,76.80
2022-08-26T15:39:17.386Z,77.60
2022-08-26T15:41:46.047Z,77.74
2022-08-26T15:44:17.698Z,77.67
2022-08-26T15:46:45.864Z,77.70
2022-08-26T15:49:17.796Z,77.90
2022-08-26T15:51:50.338Z,78.72
2022-08-26T15:54:21.721Z,77.72
2022-08-26T15:56:52.168Z,77.87
2022-08-26T15:59:22.182Z,78.19
2022-08-26T16:01:50.602Z,77.56
2022-08-26T16:04:18.663Z,78.35
2022-08-26T16:06:50.214Z,78.19
2022-08-26T16:09:18.822Z,78.42
2022-08-26T16:11:46.689Z,78.10
2022-08-26T16:14:14.547Z,78.03
2022-08-26T16:16:42.646Z,77.50
2022-08-26T16:19:11.570Z,77.44
2022-08-26T16:21:40.557Z,76.81
2022-08-26T16:24:10.361Z,76.54
2022-08-26T16:26:40.470Z,76.61
2022-08-26T16:29:10.622Z,75.96
2022-08-26T16:31:39.108Z,75.54
2022-08-26T16:34:07.779Z,75.76
2022-08-26T16:36:36.916Z,75.69
2022-08-26T16:39:05.970Z,75.54
2022-08-26T16:41:35.307Z,75.44
2022-08-26T16:44:03.760Z,75.05
2022-08-26T16:46:31.750Z,75.30
2022-08-26T16:49:03.442Z,75.71
2022-08-26T16:51:32.378Z,75.30
2022-08-26T16:54:06.982Z,75.56
2022-08-26T16:56:36.757Z,75.84
2022-08-26T16:59:05.768Z,75.78
2022-08-26T17:01:33.575Z,75.55
2022-08-26T17:04:01.535Z,76.12
2022-08-26T17:06:29.720Z,75.95
2022-08-26T17:08:57.588Z,76.06
2022-08-26T17:11:25.443Z,76.10
2022-08-26T17:13:54.659Z,75.90
2022-08-26T17:16:26.589Z,75.93
2022-08-26T17:18:56.045Z,76.05
2022-08-26T17:21:23.923Z,76.39
2022-08-26T17:23:51.787Z,76.57
2022-08-26T17:26:19.663Z,76.49
2022-08-26T17:28:47.760Z,76.68
2022-08-26T17:31:17.159Z,76.90
2022-08-26T17:33:47.846Z,77.19
2022-08-26T17:36:18.694Z,77.41
2022-08-26T17:38:46.649Z,77.44
2022-08-26T17:41:17.768Z,77.84
2022-08-26T17:43:45.951Z,77.81
2022-08-26T17:46:14.336Z,77.85
2022-08-26T17:48:43.889Z,77.87
2022-08-26T17:51:13.356Z,78.10
2022-08-26T17:53:42.207Z,78.06
2022-08-26T17:56:12.974Z,78.15
2022-08-26T17:58:47.956Z,78.18
2022-08-26T18:01:18.908Z,77.64
2022-08-26T18:03:48.275Z,77.42
2022-08-26T18:06:16.561Z,77.32
2022-08-26T18:08:44.934Z,77.39
2022-08-26T18:11:14.973Z,77.28
2022-08-26T18:13:47.021Z,77.05
2022-08-26T18:16:17.888Z,76.85
2022-08-26T18:18:46.456Z,77.15
2022-08-26T18:21:17.850Z,76.77
2022-08-26T18:23:46.672Z,76.86
2022-08-26T18:26:18.028Z,77.22
2022-08-26T18:28:45.951Z,76.83
2022-08-26T18:31:13.930Z,76.72
2022-08-26T18:33:43.004Z,77.02
2022-08-26T18:36:17.116Z,77.15
2022-08-26T18:38:45.090Z,76.99
2022-08-26T18:41:14.253Z,76.82
2022-08-26T18:43:42.421Z,76.68
2022-08-26T18:46:11.435Z,76.98
2022-08-26T18:48:40.537Z,77.20
2022-08-26T18:51:08.516Z,76.98
2022-08-26T18:53:42.411Z,77.11
2022-08-26T18:56:10.247Z,77.00
2022-08-26T18:58:38.272Z,77.09
2022-08-26T19:01:06.291Z,77.28
2022-08-26T19:03:34.370Z,77.23
2022-08-26T19:06:02.253Z,77.31
2022-08-26T19:08:30.137Z,77.36
2022-08-26T19:11:00.480Z,77.54
2022-08-26T19:13:28.421Z,77.74
2022-08-26T19:15:56.290Z,77.56
2022-08-26T19:18:24.156Z,77.90
2022-08-26T19:20:52.014Z,77.74
2022-08-26T19:23:31.595Z,78.02
2022-08-26T19:26:04.618Z,78.23
2022-08-26T19:28:32.634Z,78.15
2022-08-26T19:31:00.873Z,77.49
2022-08-26T19:33:28.840Z,77.95
2022-08-26T19:35:56.877Z,78.28
2022-08-26T19:38:24.747Z,77.85
2022-08-26T19:40:55.677Z,77.96
2022-08-26T19:43:24.949Z,78.25
2022-08-26T19:45:53.230Z,78.17
2022-08-26T19:48:21.204Z,78.37
2022-08-26T19:50:49.547Z,78.36
2022-08-26T19:53:17.403Z,78.65
2022-08-26T19:55:45.307Z,78.31
2022-08-26T19:58:13.409Z,78.12
2022-08-26T20:00:42.807Z,78.01
2022-08-26T20:03:15.834Z,78.20
2022-08-26T20:05:44.083Z,77.96
2022-08-26T20:08:22.066Z,77.52
2022-08-26T20:10:51.405Z,77.34
2022-08-26T20:13:19.506Z,78.00
2022-08-26T20:15:48.940Z,77.88
2022-08-26T20:18:34.069Z,78.06
2022-08-26T20:21:19.321Z,77.73
2022-08-26T20:23:47.281Z,78.03
2022-08-26T20:26:15.198Z,77.93
2022-08-26T20:28:43.064Z,78.12
2022-08-26T20:31:12.658Z,78.19
2022-08-26T20:33:46.372Z,78.70
2022-08-26T20:36:15.924Z,78.53
2022-08-26T20:38:45.934Z,78.11
2022-08-26T20:41:14.044Z,78.51
2022-08-26T20:43:43.570Z,78.15
2022-08-26T20:46:18.117Z,77.68
2022-08-26T20:48:47.592Z,78.18
2022-08-26T20:51:15.660Z,78.52
2022-08-26T20:53:44.245Z,78.28
2022-08-26T20:56:14.066Z,78.09
2022-08-26T20:58:42.426Z,78.06
2022-08-26T21:01:20.116Z,77.90
2022-08-26T21:03:48.497Z,78.16
2022-08-26T21:06:16.413Z,77.93
2022-08-26T21:08:44.922Z,78.24
2022-08-26T21:11:13.401Z,77.47
2022-08-26T21:14:01.504Z,77.43
2022-08-26T21:16:30.680Z,77.63
2022-08-26T21:19:00.478Z,77.80
2022-08-26T21:21:29.075Z,77.65
2022-08-26T21:23:57.527Z,77.97
2022-08-26T21:26:25.738Z,78.10
2022-08-26T21:28:54.172Z,78.11
2022-08-26T21:31:23.808Z,77.74
2022-08-26T21:33:54.025Z,77.57
2022-08-26T21:36:22.024Z,77.85
2022-08-26T21:38:49.922Z,77.66
2022-08-26T21:41:22.054Z,77.90
2022-08-26T21:43:51.253Z,77.49
2022-08-26T21:46:22.450Z,78.33
2022-08-26T21:48:55.134Z,78.03
2022-08-26T21:51:25.373Z,78.17
2022-08-26T21:53:53.740Z,77.68
2022-08-26T21:56:23.190Z,77.37
2022-08-26T21:58:52.479Z,77.89
2022-08-26T22:01:23.284Z,77.70
2022-08-26T22:03:53.353Z,77.05
2022-08-26T22:06:23.542Z,77.26
2022-08-26T22:08:51.748Z,77.71
2022-08-26T22:11:19.770Z,77.69
2022-08-26T22:13:49.556Z,78.12
2022-08-26T22:16:18.775Z,78.23
2022-08-26T22:18:46.873Z,77.81
2022-08-26T22:21:18.779Z,78.12
2022-08-26T22:23:47.408Z,77.55
2022-08-26T22:26:25.611Z,78.01
2022-08-26T22:28:58.802Z,78.11
2022-08-26T22:31:37.497Z,77.88
2022-08-26T22:34:08.413Z,77.30
2022-08-26T22:36:43.128Z,77.68
2022-08-26T22:39:13.101Z,77.92
2022-08-26T22:41:41.249Z,78.06
2022-08-26T22:44:09.111Z,77.68
2022-08-26T22:46:38.554Z,77.86
2022-08-26T22:49:07.129Z,77.04
2022-08-26T22:51:35.031Z,77.33
2022-08-26T22:54:04.660Z,77.56
2022-08-26T22:56:32.566Z,77.07
2022-08-26T22:59:00.447Z,76.88
2022-08-26T23:01:28.797Z,77.59
2022-08-26T23:03:56.859Z,77.50
2022-08-26T23:06:24.710Z,77.46
2022-08-26T23:08:53.100Z,77.39
2022-08-26T23:11:22.799Z,77.70
2022-08-26T23:13:50.689Z,77.57
2022-08-26T23:16:18.563Z,77.96
2022-08-26T23:18:46.860Z,77.67
2022-08-26T23:21:15.176Z,77.64
2022-08-26T23:23:44.270Z,78.09
2022-08-26T23:26:17.397Z,77.30
2022-08-26T23:28:47.042Z,77.42
2022-08-26T23:31:15.319Z,77.67
2022-08-26T23:34:00.437Z,77.62
2022-08-26T23:36:31.003Z,77.46
2022-08-26T23:39:03.112Z,77.74
2022-08-26T23:41:30.974Z,77.62
2022-08-26T23:44:03.467Z,77.48
2022-08-26T23:46:32.203Z,77.86
2022-08-26T23:48:59.985Z,77.21
2022-08-26T23:51:46.034Z,77.50
2022-08-26T23:54:14.898Z,77.56
2022-08-26T23:56:43.068Z,77.44
2022-08-26T23:59:12.863Z,77.25
